Time;durP1;ratioP1;P1;durP2;ratioP2;P2;SDS_P1;SDS_P2;PMS_P1;PMS_P2;Temp;Humidity;BMP_temperature;BMP_pressure;BME280_temperature;BME280_humidity;BME280_pressure;Samples;Min_cycle;Max_cycle;Signal;HPM_P1;HPM_P2
2022/04/27 00:00:57;;;;;;;18.30;8.82;;;;;;;;;;8308714;28;20046;-77
2022/04/27 00:04:59;;;;;;;19.08;10.02;;;;;;;;;;8308614;28;20111;-77
2022/04/27 00:09:02;;;;;;;18.00;9.15;;;;;;;;;;8307871;28;20116;-79
2022/04/27 00:13:05;;;;;;;17.63;10.20;;;;;;;;;;8307805;28;20058;-77
2022/04/27 00:17:09;;;;;;;19.50;9.27;;;;;;;;;;8307995;28;20062;-77
2022/04/27 00:21:11;;;;;;;18.38;9.27;;;;;;;;;;8308343;28;20072;-78
2022/04/27 00:25:14;;;;;;;17.50;8.18;;;;;;;;;;8507415;22;20117;-76
2022/04/27 00:29:17;;;;;;;17.85;9.55;;;;;;;;;;8407464;28;20514;-77
2022/04/27 00:33:21;;;;;;;17.88;8.60;;;;;;;;;;8407032;28;20050;-79
2022/04/27 00:37:25;;;;;;;17.00;8.60;;;;;;;;;;8408031;28;20044;-77
2022/04/27 00:41:28;;;;;;;16.95;8.73;;;;;;;;;;8402289;28;20045;-77
2022/04/27 00:45:30;;;;;;;21.35;9.63;;;;;;;;;;8405663;28;20048;-78
2022/04/27 00:49:35;;;;;;;18.58;9.23;;;;;;;;;;8426732;28;20193;-77
2022/04/27 00:53:40;;;;;;;20.58;11.02;;;;;;;;;;8435191;28;20450;-77
2022/04/27 00:57:46;;;;;;;17.27;8.95;;;;;;;;;;8435702;28;20513;-76
2022/04/27 01:01:49;;;;;;;21.60;10.52;;;;;;;;;;8435142;28;20417;-77
2022/04/27 01:05:53;;;;;;;20.38;10.10;;;;;;;;;;8434419;28;20040;-76
2022/04/27 01:09:56;;;;;;;18.95;9.50;;;;;;;;;;8434141;28;20059;-76
2022/04/27 01:13:59;;;;;;;23.00;9.38;;;;;;;;;;8434514;28;20048;-77
2022/04/27 01:18:01;;;;;;;21.23;10.25;;;;;;;;;;8434068;28;20054;-77
2022/04/27 01:22:06;;;;;;;20.42;10.60;;;;;;;;;;8434423;28;20074;-76
2022/04/27 01:26:09;;;;;;;27.40;10.55;;;;;;;;;;8433639;28;20052;-77
2022/04/27 01:30:12;;;;;;;32.83;11.50;;;;;;;;;;8434067;28;20471;-77
2022/04/27 01:34:15;;;;;;;32.15;12.20;;;;;;;;;;8433592;28;20054;-78
2022/04/27 01:38:19;;;;;;;26.88;12.00;;;;;;;;;;8433394;28;20127;-76
2022/04/27 01:42:22;;;;;;;24.40;11.23;;;;;;;;;;8433886;28;20048;-77
2022/04/27 01:46:25;;;;;;;25.50;11.82;;;;;;;;;;8433646;28;20062;-78
2022/04/27 01:50:27;;;;;;;41.17;12.57;;;;;;;;;;8432876;28;20051;-77
2022/04/27 01:54:30;;;;;;;33.92;12.75;;;;;;;;;;8433415;28;20520;-78
2022/04/27 01:58:33;;;;;;;27.73;11.52;;;;;;;;;;8432936;28;20051;-77
2022/04/27 02:02:36;;;;;;;26.98;11.70;;;;;;;;;;8432987;28;20509;-77
2022/04/27 02:06:38;;;;;;;29.48;12.18;;;;;;;;;;8432629;28;20071;-77
2022/04/27 02:10:42;;;;;;;21.02;11.23;;;;;;;;;;8432885;28;20471;-77
2022/04/27 02:14:45;;;;;;;24.90;11.45;;;;;;;;;;8432770;28;20048;-77
2022/04/27 02:18:48;;;;;;;26.52;12.80;;;;;;;;;;8432114;28;20060;-76
2022/04/27 02:22:51;;;;;;;25.52;10.80;;;;;;;;;;8432460;28;20075;-75
2022/04/27 02:26:55;;;;;;;29.15;11.60;;;;;;;;;;8431923;28;20052;-77
2022/04/27 02:30:58;;;;;;;24.45;10.73;;;;;;;;;;8431664;28;20052;-76
2022/04/27 02:35:00;;;;;;;31.50;12.65;;;;;;;;;;8431665;28;20410;-76
2022/04/27 02:39:19;;;;;;;39.28;12.90;;;;;;;;;;8431892;28;20056;-77
2022/04/27 02:43:23;;;;;;;40.53;18.05;;;;;;;;;;8431890;28;20055;-78
2022/04/27 02:47:26;;;;;;;40.05;17.27;;;;;;;;;;8431829;28;20093;-77
2022/04/27 02:55:49;;;;;;;24.67;12.38;;;;;;;;;;8430907;28;20047;-75
2022/04/27 02:59:53;;;;;;;35.22;11.93;;;;;;;;;;8430882;28;20044;-77
2022/04/27 03:03:56;;;;;;;24.13;11.48;;;;;;;;;;8430645;28;20467;-76
2022/04/27 03:07:58;;;;;;;29.63;12.57;;;;;;;;;;8430699;28;20044;-77
2022/04/27 03:12:01;;;;;;;28.02;13.23;;;;;;;;;;8430891;28;20051;-77
2022/04/27 03:16:05;;;;;;;26.33;11.82;;;;;;;;;;8430552;28;20047;-76
2022/04/27 03:20:09;;;;;;;33.17;12.73;;;;;;;;;;8430509;28;20097;-77
2022/04/27 03:24:12;;;;;;;24.23;10.80;;;;;;;;;;8430991;28;20048;-76
2022/04/27 03:28:14;;;;;;;30.48;13.35;;;;;;;;;;8430185;28;20063;-76
2022/04/27 03:32:18;;;;;;;35.17;14.68;;;;;;;;;;8430612;28;20499;-77
2022/04/27 03:36:21;;;;;;;30.42;13.10;;;;;;;;;;8430009;28;20048;-80
2022/04/27 03:40:24;;;;;;;33.15;12.35;;;;;;;;;;8430471;28;20198;-78
2022/04/27 03:44:26;;;;;;;28.77;13.30;;;;;;;;;;8429982;28;20048;-78
2022/04/27 03:48:31;;;;;;;28.02;13.18;;;;;;;;;;8430458;28;20190;-76
2022/04/27 03:52:33;;;;;;;28.30;12.02;;;;;;;;;;8429744;28;20074;-77
2022/04/27 03:56:36;;;;;;;28.08;13.57;;;;;;;;;;8429883;28;20044;-76
2022/04/27 04:00:38;;;;;;;35.63;14.70;;;;;;;;;;8429700;28;20093;-77
2022/04/27 04:04:42;;;;;;;39.05;15.15;;;;;;;;;;8430259;28;20093;-77
2022/04/27 04:08:45;;;;;;;31.58;14.18;;;;;;;;;;8418688;28;20055;-79
2022/04/27 04:12:48;;;;;;;32.67;14.15;;;;;;;;;;8401619;28;20105;-77
2022/04/27 04:16:50;;;;;;;27.90;15.18;;;;;;;;;;8418918;28;20131;-79
2022/04/27 04:20:54;;;;;;;31.50;16.08;;;;;;;;;;8411139;28;20052;-77
2022/04/27 04:29:16;;;;;;;42.03;16.42;;;;;;;;;;8402216;28;20142;-77
2022/04/27 04:33:19;;;;;;;32.90;14.77;;;;;;;;;;8401803;28;20051;-77
2022/04/27 04:37:23;;;;;;;36.13;16.63;;;;;;;;;;8402106;28;20476;-77
2022/04/27 04:41:25;;;;;;;37.72;15.27;;;;;;;;;;8401574;28;20053;-78
2022/04/27 04:45:28;;;;;;;44.40;18.17;;;;;;;;;;8401614;28;20086;-77
2022/04/27 04:49:31;;;;;;;37.53;15.77;;;;;;;;;;8401338;28;20056;-75
2022/04/27 04:53:35;;;;;;;28.95;13.98;;;;;;;;;;8401841;28;20465;-76
2022/04/27 04:57:38;;;;;;;47.63;22.10;;;;;;;;;;8400955;28;20045;-77
2022/04/27 05:01:41;;;;;;;45.00;21.98;;;;;;;;;;8399383;28;20052;-76
2022/04/27 05:05:44;;;;;;;37.25;17.80;;;;;;;;;;8399561;28;20052;-76
2022/04/27 05:09:49;;;;;;;73.18;37.03;;;;;;;;;;8401118;28;20383;-77
2022/04/27 05:13:52;;;;;;;27.00;16.05;;;;;;;;;;8401298;28;20072;-76
2022/04/27 05:17:54;;;;;;;24.02;13.57;;;;;;;;;;8400966;28;20054;-79
2022/04/27 05:21:57;;;;;;;23.10;14.18;;;;;;;;;;8400400;28;20484;-76
2022/04/27 05:26:03;;;;;;;34.55;19.17;;;;;;;;;;8399441;28;20057;-76
2022/04/27 05:34:30;;;;;;;28.50;15.82;;;;;;;;;;8399858;28;20049;-76
2022/04/27 05:38:32;;;;;;;35.15;26.48;;;;;;;;;;8399609;28;20044;-76
2022/04/27 05:42:37;;;;;;;44.50;33.00;;;;;;;;;;8399642;28;20071;-78
2022/04/27 05:46:40;;;;;;;45.92;34.00;;;;;;;;;;8399893;28;20330;-76
2022/04/27 05:50:45;;;;;;;41.00;30.30;;;;;;;;;;8399649;28;20098;-78
2022/04/27 05:54:49;;;;;;;44.83;33.20;;;;;;;;;;8399146;28;20044;-77
2022/04/27 05:58:53;;;;;;;57.30;33.00;;;;;;;;;;8426799;28;20075;-79
2022/04/27 06:02:56;;;;;;;52.70;30.98;;;;;;;;;;8444634;28;20048;-77
2022/04/27 06:07:00;;;;;;;39.38;25.75;;;;;;;;;;8421300;28;20047;-77
2022/04/27 06:11:03;;;;;;;37.35;19.38;;;;;;;;;;8410697;28;20052;-78
2022/04/27 06:15:12;;;;;;;30.05;16.65;;;;;;;;;;8420927;28;20040;-79
2022/04/27 06:19:15;;;;;;;31.23;16.55;;;;;;;;;;8429041;28;20499;-77
2022/04/27 06:23:18;;;;;;;23.67;14.38;;;;;;;;;;8430209;28;20078;-79
2022/04/27 06:27:21;;;;;;;24.25;12.90;;;;;;;;;;8404177;28;20053;-77
2022/04/27 06:31:25;;;;;;;21.90;13.40;;;;;;;;;;8394093;28;20056;-79
2022/04/27 06:35:28;;;;;;;20.13;12.82;;;;;;;;;;8396058;28;20044;-77
2022/04/27 06:39:31;;;;;;;16.77;11.75;;;;;;;;;;8395160;28;20056;-77
2022/04/27 06:43:34;;;;;;;20.40;11.40;;;;;;;;;;8397615;28;20449;-77
2022/04/27 06:47:39;;;;;;;16.70;10.73;;;;;;;;;;8398344;28;20207;-78
2022/04/27 06:51:42;;;;;;;14.93;10.57;;;;;;;;;;8397621;28;20053;-77
2022/04/27 06:55:47;;;;;;;16.17;11.20;;;;;;;;;;8397484;28;20577;-78
2022/04/27 06:59:50;;;;;;;15.93;11.18;;;;;;;;;;8397350;28;20075;-78
2022/04/27 07:03:55;;;;;;;17.40;11.45;;;;;;;;;;8418663;28;20056;-78
2022/04/27 07:08:02;;;;;;;16.60;11.15;;;;;;;;;;8431327;28;20055;-77
2022/04/27 07:12:06;;;;;;;16.30;10.82;;;;;;;;;;8429982;28;20207;-78
2022/04/27 07:16:08;;;;;;;13.40;10.05;;;;;;;;;;8430544;28;20140;-78
2022/04/27 07:20:13;;;;;;;14.35;10.88;;;;;;;;;;8430571;28;20160;-77
2022/04/27 07:24:16;;;;;;;16.05;10.63;;;;;;;;;;8430488;28;20044;-77
2022/04/27 07:28:19;;;;;;;13.50;8.60;;;;;;;;;;8430025;28;20075;-78
2022/04/27 07:32:21;;;;;;;12.30;9.18;;;;;;;;;;8430149;28;20048;-77
2022/04/27 07:36:25;;;;;;;12.68;8.70;;;;;;;;;;8430649;28;20044;-78
2022/04/27 07:40:29;;;;;;;12.23;9.13;;;;;;;;;;8429852;28;20048;-78
2022/04/27 07:44:33;;;;;;;16.90;9.55;;;;;;;;;;8430477;28;20046;-78
2022/04/27 07:48:36;;;;;;;12.43;7.75;;;;;;;;;;8430270;28;20078;-77
2022/04/27 07:52:40;;;;;;;11.32;7.85;;;;;;;;;;8436644;28;20048;-77
2022/04/27 07:56:43;;;;;;;11.13;7.65;;;;;;;;;;8437096;28;20063;-76
2022/04/27 08:00:46;;;;;;;11.32;7.22;;;;;;;;;;8436956;28;20482;-79
2022/04/27 08:04:49;;;;;;;9.60;7.03;;;;;;;;;;8436888;28;20426;-76
2022/04/27 08:08:53;;;;;;;11.10;7.05;;;;;;;;;;8436098;28;20044;-80
2022/04/27 08:12:56;;;;;;;10.77;7.53;;;;;;;;;;8436505;28;20070;-76
2022/04/27 08:17:01;;;;;;;10.68;6.90;;;;;;;;;;8436302;28;20061;-81
2022/04/27 08:25:28;;;;;;;11.38;6.93;;;;;;;;;;8435454;28;20132;-78
2022/04/27 08:29:31;;;;;;;10.32;6.68;;;;;;;;;;8435448;28;20407;-76
2022/04/27 08:33:34;;;;;;;12.77;7.07;;;;;;;;;;8435157;28;20040;-80
2022/04/27 08:37:37;;;;;;;10.38;6.57;;;;;;;;;;8435763;28;20051;-76
2022/04/27 08:41:42;;;;;;;8.55;5.82;;;;;;;;;;8435211;28;20090;-76
2022/04/27 08:45:46;;;;;;;12.05;7.68;;;;;;;;;;8436106;28;20384;-77
2022/04/27 08:49:49;;;;;;;12.48;6.47;;;;;;;;;;8434963;28;20051;-76
2022/04/27 08:53:52;;;;;;;7.47;5.30;;;;;;;;;;8435327;28;20048;-77
2022/04/27 08:58:07;;;;;;;8.05;5.53;;;;;;;;;;8434593;28;20048;-76
2022/04/27 09:02:28;;;;;;;8.60;5.35;;;;;;;;;;8433790;28;20044;-76
2022/04/27 09:06:39;;;;;;;7.10;4.82;;;;;;;;;;8434217;28;20071;-80
2022/04/27 09:10:41;;;;;;;7.45;4.63;;;;;;;;;;8434155;28;20074;-76
2022/04/27 09:14:46;;;;;;;7.60;3.95;;;;;;;;;;8434383;28;20051;-76
2022/04/27 09:23:22;;;;;;;7.50;4.38;;;;;;;;;;8434459;28;20552;-79
2022/04/27 09:27:26;;;;;;;7.10;4.35;;;;;;;;;;8433596;28;20059;-77
2022/04/27 09:31:33;;;;;;;6.00;3.22;;;;;;;;;;8433579;28;20051;-78
2022/04/27 09:35:39;;;;;;;5.15;3.50;;;;;;;;;;8434001;28;20634;-75
2022/04/27 09:39:42;;;;;;;7.05;3.22;;;;;;;;;;8433308;28;20051;-76
2022/04/27 09:43:46;;;;;;;4.18;2.85;;;;;;;;;;8433658;28;20135;-81
2022/04/27 09:47:53;;;;;;;5.32;2.97;;;;;;;;;;8433762;28;20054;-76
2022/04/27 09:51:57;;;;;;;5.82;3.03;;;;;;;;;;8433020;28;20064;-76
2022/04/27 09:56:01;;;;;;;8.35;3.85;;;;;;;;;;8433494;28;20048;-79
2022/04/27 10:00:04;;;;;;;6.22;4.10;;;;;;;;;;8433181;28;20411;-75
2022/04/27 10:04:13;;;;;;;5.22;3.20;;;;;;;;;;8432496;28;20051;-76
2022/04/27 10:08:15;;;;;;;5.70;3.35;;;;;;;;;;8432935;28;20520;-76
2022/04/27 10:12:18;;;;;;;5.38;3.33;;;;;;;;;;8432326;28;20498;-76
2022/04/27 10:16:22;;;;;;;6.18;3.50;;;;;;;;;;8432902;28;20532;-76
2022/04/27 10:20:31;;;;;;;4.88;2.95;;;;;;;;;;8431939;28;20051;-76
2022/04/27 10:24:50;;;;;;;6.30;3.47;;;;;;;;;;8432152;28;20126;-77
2022/04/27 10:28:57;;;;;;;5.32;3.63;;;;;;;;;;8431877;28;20097;-76
2022/04/27 10:32:59;;;;;;;4.75;3.20;;;;;;;;;;8431858;28;20048;-76
2022/04/27 10:37:04;;;;;;;5.85;3.58;;;;;;;;;;8430829;28;20093;-76
2022/04/27 10:41:07;;;;;;;10.23;3.70;;;;;;;;;;8431119;28;20058;-76
2022/04/27 10:45:12;;;;;;;6.60;3.63;;;;;;;;;;8431395;28;20046;-76
2022/04/27 10:49:23;;;;;;;6.10;3.83;;;;;;;;;;8431683;28;20040;-75
2022/04/27 10:53:29;;;;;;;6.30;3.53;;;;;;;;;;8430914;28;20054;-77
2022/04/27 10:57:41;;;;;;;5.45;3.70;;;;;;;;;;8419805;28;20401;-77
2022/04/27 11:01:53;;;;;;;7.82;4.75;;;;;;;;;;8396116;28;20089;-81
2022/04/27 11:06:01;;;;;;;8.50;5.13;;;;;;;;;;8458313;28;20052;-76
2022/04/27 11:10:18;;;;;;;6.35;4.07;;;;;;;;;;8459431;28;20054;-79
2022/04/27 11:14:27;;;;;;;7.28;3.35;;;;;;;;;;8434556;28;20466;-78
2022/04/27 11:18:51;;;;;;;5.88;3.10;;;;;;;;;;8426011;28;20052;-77
2022/04/27 11:22:57;;;;;;;4.45;2.90;;;;;;;;;;8425683;28;20059;-77
2022/04/27 11:27:03;;;;;;;4.75;3.15;;;;;;;;;;8424705;28;20052;-77
2022/04/27 11:31:06;;;;;;;5.72;2.78;;;;;;;;;;8425787;28;20044;-79
2022/04/27 11:35:10;;;;;;;3.38;2.00;;;;;;;;;;8425736;28;20427;-81
2022/04/27 11:39:21;;;;;;;5.55;2.97;;;;;;;;;;8425334;28;20046;-75
2022/04/27 11:43:27;;;;;;;4.30;2.33;;;;;;;;;;8427949;28;20056;-79
2022/04/27 11:47:31;;;;;;;6.63;3.20;;;;;;;;;;8428914;28;20044;-77
2022/04/27 11:51:37;;;;;;;6.88;2.90;;;;;;;;;;8429782;28;20075;-78
2022/04/27 11:55:40;;;;;;;7.57;3.47;;;;;;;;;;8430013;28;20130;-77
2022/04/27 11:59:45;;;;;;;7.10;3.20;;;;;;;;;;8430420;28;20048;-77
2022/04/27 12:03:49;;;;;;;2.83;1.85;;;;;;;;;;8430148;28;20582;-76
2022/04/27 12:07:52;;;;;;;5.63;3.80;;;;;;;;;;8429933;28;20158;-75
2022/04/27 12:12:07;;;;;;;6.93;3.40;;;;;;;;;;8430286;28;20044;-77
2022/04/27 12:16:11;;;;;;;6.13;3.40;;;;;;;;;;8429526;28;20048;-76
2022/04/27 12:20:43;;;;;;;6.80;3.08;;;;;;;;;;8429607;28;20143;-80
2022/04/27 12:24:46;;;;;;;6.07;3.10;;;;;;;;;;8429767;28;20453;-78
2022/04/27 12:28:49;;;;;;;10.40;4.80;;;;;;;;;;8429855;28;20097;-79
2022/04/27 12:32:54;;;;;;;4.75;2.80;;;;;;;;;;8429146;28;20052;-79
2022/04/27 12:41:30;;;;;;;8.27;3.67;;;;;;;;;;8435456;28;20059;-79
2022/04/27 12:45:33;;;;;;;3.75;2.15;;;;;;;;;;8435183;28;20072;-79
2022/04/27 12:49:40;;;;;;;3.55;2.50;;;;;;;;;;8430798;28;20487;-78
2022/04/27 12:53:53;;;;;;;5.13;2.53;;;;;;;;;;8433474;28;20051;-79
2022/04/27 12:57:56;;;;;;;4.90;2.92;;;;;;;;;;8435288;28;20491;-77
2022/04/27 13:02:00;;;;;;;5.82;1.92;;;;;;;;;;8434569;28;20402;-77
2022/04/27 13:06:05;;;;;;;4.43;2.80;;;;;;;;;;8434528;28;20050;-76
2022/04/27 13:14:30;;;;;;;3.78;2.50;;;;;;;;;;8434279;28;20050;-76
2022/04/27 13:18:33;;;;;;;4.53;2.90;;;;;;;;;;8434334;28;20093;-76
2022/04/27 13:22:38;;;;;;;4.00;2.70;;;;;;;;;;8434590;28;20130;-76
2022/04/27 13:26:40;;;;;;;2.85;1.85;;;;;;;;;;8433965;28;20064;-80
2022/04/27 13:30:44;;;;;;;4.43;2.33;;;;;;;;;;8433495;28;20521;-79
2022/04/27 13:34:47;;;;;;;2.65;1.77;;;;;;;;;;8434115;28;20128;-76
2022/04/27 13:38:51;;;;;;;4.43;2.50;;;;;;;;;;8446880;28;20040;-76
2022/04/27 13:42:54;;;;;;;4.07;2.53;;;;;;;;;;8442425;28;20592;-76
2022/04/27 13:46:57;;;;;;;4.85;2.47;;;;;;;;;;8439684;28;20044;-76
2022/04/27 13:51:00;;;;;;;4.65;2.65;;;;;;;;;;8440451;28;20044;-76
2022/04/27 13:55:06;;;;;;;5.07;3.17;;;;;;;;;;8440087;28;20048;-79
2022/04/27 13:59:10;;;;;;;3.33;2.22;;;;;;;;;;8427030;28;20044;-76
2022/04/27 14:03:13;;;;;;;4.57;2.83;;;;;;;;;;8430898;28;20044;-76
2022/04/27 14:07:17;;;;;;;4.78;2.45;;;;;;;;;;8401594;28;20047;-79
2022/04/27 14:18:09;;;;;;;4.70;2.60;;;;;;;;;;8428657;28;20076;-82
2022/04/27 14:20:12;;;;;;;5.00;2.83;;;;;;;;;;8410912;28;20052;-80
2022/04/27 14:24:19;;;;;;;6.97;3.00;;;;;;;;;;8414963;28;20036;-79
2022/04/27 14:28:32;;;;;;;6.22;3.33;;;;;;;;;;8427697;28;20052;-77
2022/04/27 14:32:38;;;;;;;5.07;2.72;;;;;;;;;;8427600;28;20139;-78
2022/04/27 14:36:42;;;;;;;5.65;3.15;;;;;;;;;;8413292;28;20044;-78
2022/04/27 14:40:48;;;;;;;33.65;15.43;;;;;;;;;;8393511;28;20056;-77
2022/04/27 14:44:52;;;;;;;4.43;3.05;;;;;;;;;;8394231;28;20048;-78
2022/04/27 14:48:55;;;;;;;5.18;3.10;;;;;;;;;;8393177;28;20106;-77
2022/04/27 14:52:58;;;;;;;9.77;2.92;;;;;;;;;;8400409;28;20181;-79
2022/04/27 14:57:02;;;;;;;11.20;4.82;;;;;;;;;;8427093;28;20483;-77
2022/04/27 15:01:12;;;;;;;14.30;8.60;;;;;;;;;;8412941;28;20400;-76
2022/04/27 15:05:16;;;;;;;10.25;5.45;;;;;;;;;;8400654;28;20064;-76
2022/04/27 15:09:19;;;;;;;8.25;4.18;;;;;;;;;;8394189;28;20068;-78
2022/04/27 15:13:25;;;;;;;4.60;2.80;;;;;;;;;;8392520;28;20056;-77
2022/04/27 15:17:34;;;;;;;5.15;2.83;;;;;;;;;;8392616;28;20131;-79
2022/04/27 15:26:17;;;;;;;5.95;3.13;;;;;;;;;;8380900;28;20557;-80
2022/04/27 15:30:27;;;;;;;4.88;2.67;;;;;;;;;;8392609;28;20499;-78
2022/04/27 15:34:32;;;;;;;4.10;3.05;;;;;;;;;;8393011;28;20411;-77
2022/04/27 15:38:35;;;;;;;5.50;3.30;;;;;;;;;;8393350;28;20373;-79
2022/04/27 15:42:41;;;;;;;6.03;4.07;;;;;;;;;;8392307;28;20056;-76
2022/04/27 15:46:45;;;;;;;6.05;3.70;;;;;;;;;;8392213;28;20049;-78
2022/04/27 15:50:52;;;;;;;3.83;2.78;;;;;;;;;;8392156;28;20063;-78
2022/04/27 15:54:55;;;;;;;8.07;4.30;;;;;;;;;;8392393;28;20044;-79
2022/04/27 15:59:03;;;;;;;9.02;3.67;;;;;;;;;;8392404;28;20049;-79
2022/04/27 16:03:06;;;;;;;5.88;3.03;;;;;;;;;;8392001;28;20094;-79
2022/04/27 16:07:11;;;;;;;5.07;3.03;;;;;;;;;;8391328;28;20486;-76
2022/04/27 16:11:14;;;;;;;7.78;3.30;;;;;;;;;;8394183;28;20052;-77
2022/04/27 16:15:17;;;;;;;5.68;2.97;;;;;;;;;;8397866;28;20048;-80
2022/04/27 16:19:22;;;;;;;7.22;3.60;;;;;;;;;;8397800;28;20044;-79
2022/04/27 16:23:27;;;;;;;8.68;3.97;;;;;;;;;;8397250;28;20048;-79
2022/04/27 16:27:34;;;;;;;6.50;3.08;;;;;;;;;;8396814;28;20056;-77
2022/04/27 16:31:40;;;;;;;9.27;4.20;;;;;;;;;;8397147;28;20056;-80
2022/04/27 16:35:45;;;;;;;6.95;3.63;;;;;;;;;;8397093;28;20060;-79
2022/04/27 16:39:52;;;;;;;7.35;3.65;;;;;;;;;;8363823;28;20496;-78
2022/04/27 16:43:56;;;;;;;6.47;3.58;;;;;;;;;;8362472;28;20107;-79
2022/04/27 16:48:00;;;;;;;274.17;94.38;;;;;;;;;;8363413;28;20106;-78
2022/04/27 16:52:10;;;;;;;8.07;4.25;;;;;;;;;;8380158;28;20499;-79
2022/04/27 16:56:17;;;;;;;8.60;4.30;;;;;;;;;;8396782;28;20047;-76
2022/04/27 17:04:42;;;;;;;9.30;4.03;;;;;;;;;;8362677;28;20068;-78
2022/04/27 17:08:46;;;;;;;6.25;3.50;;;;;;;;;;8363334;28;20059;-79
2022/04/27 17:12:51;;;;;;;7.45;4.20;;;;;;;;;;8363019;28;20045;-80
2022/04/27 17:16:54;;;;;;;14.52;6.55;;;;;;;;;;8362966;28;20223;-79
2022/04/27 17:20:59;;;;;;;12.55;7.20;;;;;;;;;;8362582;28;20593;-77
2022/04/27 17:25:01;;;;;;;20.95;9.85;;;;;;;;;;8361864;28;20056;-80
2022/04/27 17:29:06;;;;;;;40.45;18.52;;;;;;;;;;8362693;28;20409;-79
2022/04/27 17:33:09;;;;;;;38.47;18.17;;;;;;;;;;8362088;28;20048;-80
2022/04/27 17:37:23;;;;;;;39.10;18.25;;;;;;;;;;8374483;28;20546;-77
2022/04/27 17:41:31;;;;;;;38.88;17.00;;;;;;;;;;8395719;28;20557;-80
2022/04/27 17:45:41;;;;;;;31.92;14.27;;;;;;;;;;8395344;28;20060;-79
2022/04/27 17:49:46;;;;;;;29.95;13.52;;;;;;;;;;8395003;28;20563;-77
2022/04/27 17:53:59;;;;;;;27.85;11.88;;;;;;;;;;8394781;28;20048;-79
2022/04/27 17:58:06;;;;;;;22.27;9.75;;;;;;;;;;8394714;28;20051;-79
2022/04/27 18:02:16;;;;;;;18.45;8.50;;;;;;;;;;8390125;28;20051;-79
2022/04/27 18:06:35;;;;;;;19.98;8.68;;;;;;;;;;8361521;28;20049;-79
2022/04/27 18:11:09;;;;;;;13.25;7.25;;;;;;;;;;8361144;28;20519;-78
2022/04/27 18:15:13;;;;;;;23.75;13.55;;;;;;;;;;8361165;28;20106;-79
2022/04/27 18:19:18;;;;;;;20.05;11.18;;;;;;;;;;8360761;28;20397;-80
2022/04/27 18:23:21;;;;;;;16.77;8.85;;;;;;;;;;8383729;28;20059;-77
2022/04/27 18:27:27;;;;;;;14.63;9.13;;;;;;;;;;8393556;28;20083;-78
2022/04/27 18:31:32;;;;;;;18.02;10.82;;;;;;;;;;8393736;28;20111;-81
2022/04/27 18:36:05;;;;;;;17.67;11.27;;;;;;;;;;8397013;28;20059;-80
2022/04/27 18:40:10;;;;;;;20.73;11.43;;;;;;;;;;8379210;28;20041;-77
2022/04/27 18:53:33;;;;;;;20.55;10.02;;;;;;;;;;8380775;28;20484;-78
2022/04/27 18:58:24;;;;;;;16.95;8.65;;;;;;;;;;8383444;28;20120;-79
2022/04/27 19:02:37;;;;;;;16.77;9.10;;;;;;;;;;8380525;28;20052;-80
2022/04/27 19:06:51;;;;;;;16.60;9.35;;;;;;;;;;8380036;28;20502;-77
2022/04/27 19:11:03;;;;;;;20.10;10.30;;;;;;;;;;8377138;28;20422;-81
2022/04/27 19:15:12;;;;;;;16.48;9.82;;;;;;;;;;8379475;28;20048;-77
2022/04/27 19:19:26;;;;;;;21.13;11.55;;;;;;;;;;8376286;28;20048;-77
2022/04/27 19:23:42;;;;;;;25.67;13.70;;;;;;;;;;8379375;28;20485;-77
2022/04/27 19:27:47;;;;;;;23.30;10.90;;;;;;;;;;8380437;28;20174;-81
2022/04/27 19:31:53;;;;;;;22.75;11.82;;;;;;;;;;8378232;28;20048;-77
2022/04/27 19:36:03;;;;;;;15.82;7.95;;;;;;;;;;8378201;28;20044;-81
2022/04/27 19:40:12;;;;;;;22.45;10.18;;;;;;;;;;8378594;28;20476;-77
2022/04/27 19:44:21;;;;;;;15.93;9.80;;;;;;;;;;8382652;28;20044;-79
2022/04/27 19:48:30;;;;;;;13.70;7.43;;;;;;;;;;8379880;28;20044;-80
2022/04/27 19:56:55;;;;;;;13.48;8.25;;;;;;;;;;8396264;28;20049;-76
2022/04/27 20:01:00;;;;;;;15.70;8.95;;;;;;;;;;8403588;28;20048;-78
2022/04/27 20:05:03;;;;;;;14.40;8.13;;;;;;;;;;8402713;28;20098;-77
2022/04/27 20:09:10;;;;;;;15.45;8.52;;;;;;;;;;8402748;28;20101;-76
2022/04/27 20:13:15;;;;;;;21.90;11.73;;;;;;;;;;8403235;28;20052;-76
2022/04/27 20:17:19;;;;;;;18.30;8.70;;;;;;;;;;8402697;28;20436;-77
2022/04/27 20:21:23;;;;;;;13.55;8.15;;;;;;;;;;8402947;28;20094;-76
2022/04/27 20:25:34;;;;;;;17.88;9.05;;;;;;;;;;8402239;28;20052;-76
2022/04/27 20:29:37;;;;;;;12.95;7.65;;;;;;;;;;8402351;28;20123;-76
2022/04/27 20:33:42;;;;;;;13.45;8.15;;;;;;;;;;8401975;28;20056;-77
2022/04/27 20:37:44;;;;;;;12.35;6.95;;;;;;;;;;8401912;28;20105;-76
2022/04/27 20:41:48;;;;;;;13.20;6.90;;;;;;;;;;8402340;28;20097;-76
2022/04/27 20:45:51;;;;;;;13.90;6.60;;;;;;;;;;8401617;28;20047;-76
2022/04/27 20:49:55;;;;;;;14.82;7.03;;;;;;;;;;8402071;28;20040;-77
2022/04/27 20:53:58;;;;;;;12.80;6.72;;;;;;;;;;8401851;28;20488;-76
2022/04/27 20:58:01;;;;;;;12.95;6.68;;;;;;;;;;8400667;28;20173;-77
2022/04/27 21:02:03;;;;;;;12.27;6.88;;;;;;;;;;8401682;28;20044;-76
2022/04/27 21:06:08;;;;;;;13.35;6.43;;;;;;;;;;8401593;28;20052;-77
2022/04/27 21:10:11;;;;;;;10.50;6.45;;;;;;;;;;8401507;28;20040;-76
2022/04/27 21:14:15;;;;;;;14.38;8.05;;;;;;;;;;8401357;28;20511;-77
2022/04/27 21:18:18;;;;;;;27.10;11.77;;;;;;;;;;8400630;28;20044;-76
2022/04/27 21:22:22;;;;;;;23.10;10.02;;;;;;;;;;8400842;28;20045;-76
2022/04/27 21:26:25;;;;;;;22.67;10.32;;;;;;;;;;8400478;28;20056;-76
2022/04/27 21:30:28;;;;;;;27.67;11.88;;;;;;;;;;8400480;28;20151;-78
2022/04/27 21:34:31;;;;;;;17.20;9.32;;;;;;;;;;8400400;28;20045;-77
2022/04/27 21:38:35;;;;;;;11.52;6.10;;;;;;;;;;8400356;28;20059;-76
2022/04/27 21:42:37;;;;;;;14.15;7.53;;;;;;;;;;8400584;28;20044;-77
2022/04/27 21:46:40;;;;;;;15.90;7.22;;;;;;;;;;8399874;28;20045;-77
2022/04/27 21:50:44;;;;;;;15.48;7.95;;;;;;;;;;8399757;28;20048;-76
2022/04/27 21:54:48;;;;;;;12.77;6.40;;;;;;;;;;8399609;28;20133;-76
2022/04/27 21:58:51;;;;;;;12.80;7.05;;;;;;;;;;8399553;28;20063;-76
2022/04/27 22:02:53;;;;;;;12.20;7.20;;;;;;;;;;8399826;28;20480;-76
2022/04/27 22:06:57;;;;;;;13.77;7.35;;;;;;;;;;8397357;28;20064;-77
2022/04/27 22:11:01;;;;;;;13.38;6.88;;;;;;;;;;8371278;28;20045;-77
2022/04/27 22:15:04;;;;;;;8.80;6.25;;;;;;;;;;8363550;28;20053;-79
2022/04/27 22:19:07;;;;;;;10.40;6.55;;;;;;;;;;8366233;28;20045;-77
2022/04/27 22:23:10;;;;;;;11.13;6.13;;;;;;;;;;8365553;28;20049;-78
2022/04/27 22:27:14;;;;;;;20.35;11.73;;;;;;;;;;8365350;28;20393;-77
2022/04/27 22:31:17;;;;;;;32.72;18.45;;;;;;;;;;8365298;28;20049;-75
2022/04/27 22:35:20;;;;;;;16.50;10.32;;;;;;;;;;8365633;28;20053;-77
2022/04/27 22:39:22;;;;;;;13.02;7.38;;;;;;;;;;8365695;28;20400;-76
2022/04/27 22:43:26;;;;;;;13.98;8.20;;;;;;;;;;8365467;28;20040;-76
2022/04/27 22:47:29;;;;;;;23.27;13.05;;;;;;;;;;8365337;28;20071;-79
2022/04/27 22:51:31;;;;;;;20.98;11.52;;;;;;;;;;8364829;28;20044;-76
2022/04/27 22:55:34;;;;;;;13.88;8.70;;;;;;;;;;8365060;28;20064;-76
2022/04/27 22:59:38;;;;;;;13.68;7.28;;;;;;;;;;8364457;28;20040;-76
2022/04/27 23:03:41;;;;;;;12.45;8.13;;;;;;;;;;8383840;28;20403;-78
2022/04/27 23:12:03;;;;;;;15.88;8.98;;;;;;;;;;8397358;28;20420;-77
2022/04/27 23:16:09;;;;;;;17.25;8.07;;;;;;;;;;8397737;28;20056;-78
2022/04/27 23:20:13;;;;;;;12.40;6.63;;;;;;;;;;8396623;28;20054;-80
2022/04/27 23:24:16;;;;;;;11.05;6.20;;;;;;;;;;8397466;28;20044;-77
2022/04/27 23:28:18;;;;;;;10.15;5.85;;;;;;;;;;8396888;28;20420;-77
2022/04/27 23:32:22;;;;;;;13.18;6.25;;;;;;;;;;8397369;28;20435;-77
2022/04/27 23:36:25;;;;;;;16.20;11.52;;;;;;;;;;8397564;28;20161;-77
2022/04/27 23:40:29;;;;;;;14.68;6.30;;;;;;;;;;8397572;28;20068;-76
2022/04/27 23:44:39;;;;;;;12.50;7.07;;;;;;;;;;8397392;28;20416;-77
2022/04/27 23:48:45;;;;;;;10.13;6.07;;;;;;;;;;8397422;28;20055;-76
2022/04/27 23:52:48;;;;;;;12.20;6.72;;;;;;;;;;8397384;28;20384;-77
2022/04/27 23:56:50;;;;;;;13.40;6.40;;;;;;;;;;8396483;28;20051;-77
